Time;durP1;ratioP1;P1;durP2;ratioP2;P2;SDS_P1;SDS_P2;PMS_P1;PMS_P2;Temp;Humidity;BMP_temperature;BMP_pressure;BME280_temperature;BME280_humidity;BME280_pressure;Samples;Min_cycle;Max_cycle;Signal;HPM_P1;HPM_P2
2022/02/27 00:00:45;;;;;;;20.20;2.70;;;-0.70;99.90;;;;;;5097828;27;20593;-67
2022/02/27 00:03:11;;;;;;;19.33;3.20;;;-0.80;99.90;;;;;;5084069;28;20032;-67
2022/02/27 00:05:37;;;;;;;3.22;1.80;;;-1.00;99.90;;;;;;5087716;28;20019;-67
2022/02/27 00:08:03;;;;;;;1.35;1.10;;;-1.10;99.90;;;;;;5100052;28;20066;-67
2022/02/27 00:10:30;;;;;;;5.32;2.00;;;-1.10;99.90;;;;;;5099361;28;20627;-67
2022/02/27 00:12:55;;;;;;;4.43;1.65;;;-1.20;99.90;;;;;;5103766;27;20085;-67
2022/02/27 00:15:21;;;;;;;5.80;2.55;;;-1.20;99.90;;;;;;5105491;28;20031;-67
2022/02/27 00:17:47;;;;;;;3.47;1.42;;;-1.20;99.90;;;;;;5104676;28;20043;-67
2022/02/27 00:20:13;;;;;;;2.67;1.90;;;-1.30;99.90;;;;;;5084499;28;20031;-67
2022/02/27 00:22:39;;;;;;;2.17;1.48;;;-1.50;99.90;;;;;;5097186;28;20126;-67
2022/02/27 00:25:06;;;;;;;4.90;1.83;;;-1.30;99.90;;;;;;5111675;27;20497;-66
2022/02/27 00:27:31;;;;;;;10.75;1.83;;;-0.90;99.90;;;;;;5082521;28;20032;-67
2022/02/27 00:29:57;;;;;;;4.47;2.05;;;-0.80;99.90;;;;;;5101476;27;20104;-67
2022/02/27 00:32:23;;;;;;;2.17;1.58;;;-0.90;99.90;;;;;;5100603;27;20047;-67
2022/02/27 00:34:48;;;;;;;5.05;1.40;;;-1.00;99.90;;;;;;5102689;27;20510;-67
2022/02/27 00:37:14;;;;;;;5.57;2.13;;;-1.00;99.90;;;;;;5104108;28;20030;-66
2022/02/27 00:39:40;;;;;;;2.95;1.73;;;-0.90;99.90;;;;;;5088599;28;20028;-67
2022/02/27 00:42:05;;;;;;;4.80;1.98;;;-1.00;99.90;;;;;;5101182;27;20088;-67
2022/02/27 00:44:32;;;;;;;2.92;1.48;;;-1.00;99.90;;;;;;5104743;28;20597;-67
2022/02/27 00:46:58;;;;;;;6.63;2.05;;;-1.00;99.90;;;;;;5102895;28;20031;-67
2022/02/27 00:49:24;;;;;;;5.32;2.55;;;-1.20;99.90;;;;;;5103374;27;20545;-67
2022/02/27 00:51:49;;;;;;;5.60;2.97;;;-1.30;99.90;;;;;;5096829;28;20032;-67
2022/02/27 00:54:15;;;;;;;5.45;2.45;;;-1.30;99.90;;;;;;5105268;27;20091;-67
2022/02/27 00:56:41;;;;;;;7.63;3.28;;;-1.40;99.90;;;;;;5098013;27;20962;-67
2022/02/27 00:59:07;;;;;;;5.60;2.30;;;-1.40;99.90;;;;;;5100157;28;20023;-67
2022/02/27 01:01:32;;;;;;;3.45;2.10;;;-1.40;99.90;;;;;;5100229;28;20109;-67
2022/02/27 01:03:58;;;;;;;3.42;1.95;;;-1.50;99.90;;;;;;5084623;28;20065;-67
2022/02/27 01:06:24;;;;;;;12.18;3.20;;;-1.60;99.90;;;;;;5099589;27;20023;-67
2022/02/27 01:08:50;;;;;;;3.72;2.55;;;-1.50;99.90;;;;;;5103744;27;20457;-67
2022/02/27 01:11:16;;;;;;;6.35;2.25;;;-1.50;99.90;;;;;;5096689;28;20111;-66
2022/02/27 01:13:42;;;;;;;5.07;3.13;;;-1.50;99.90;;;;;;5102744;27;20130;-66
2022/02/27 01:16:08;;;;;;;4.70;2.75;;;-1.50;99.90;;;;;;5086823;28;20046;-67
2022/02/27 01:18:34;;;;;;;2.55;1.73;;;-1.60;99.90;;;;;;5099586;28;20031;-67
2022/02/27 01:21:01;;;;;;;2.15;1.25;;;-1.70;99.90;;;;;;5101987;28;20024;-67
2022/02/27 01:23:26;;;;;;;10.02;2.42;;;-1.80;99.90;;;;;;5104524;27;20032;-67
2022/02/27 01:25:52;;;;;;;8.25;2.10;;;-1.80;99.90;;;;;;5100599;28;20039;-67
2022/02/27 01:28:18;;;;;;;9.52;1.50;;;-2.00;99.90;;;;;;5100316;27;20498;-67
2022/02/27 01:30:43;;;;;;;2.90;1.40;;;-2.00;99.90;;;;;;5102577;28;20015;-67
2022/02/27 01:33:09;;;;;;;9.40;1.85;;;-1.90;99.90;;;;;;5103167;27;20023;-67
2022/02/27 01:35:35;;;;;;;13.10;2.15;;;-2.00;99.90;;;;;;5104016;27;20020;-67
2022/02/27 01:38:01;;;;;;;2.45;1.52;;;-2.00;99.90;;;;;;5101835;27;20028;-67
2022/02/27 01:40:26;;;;;;;4.38;2.13;;;-1.80;99.90;;;;;;5101764;27;20157;-67
2022/02/27 01:42:52;;;;;;;3.83;2.25;;;-1.70;99.90;;;;;;5100599;28;20054;-67
2022/02/27 01:45:18;;;;;;;3.45;2.40;;;-1.80;99.90;;;;;;5098127;28;20023;-67
2022/02/27 01:47:43;;;;;;;5.03;2.55;;;-1.80;99.90;;;;;;5081895;28;20024;-67
2022/02/27 01:50:10;;;;;;;5.60;2.20;;;-1.90;99.90;;;;;;5097180;28;20032;-67
2022/02/27 01:52:35;;;;;;;2.80;1.63;;;-1.80;99.90;;;;;;5081664;28;20052;-67
2022/02/27 01:55:03;;;;;;;4.60;1.67;;;-1.80;99.90;;;;;;5081374;28;20066;-67
2022/02/27 01:57:28;;;;;;;2.55;1.52;;;-1.70;99.90;;;;;;5098452;28;20668;-67
2022/02/27 01:59:54;;;;;;;4.25;2.13;;;-1.80;99.90;;;;;;5101899;28;20024;-67
2022/02/27 02:02:21;;;;;;;1.83;1.30;;;-1.80;99.90;;;;;;5085114;28;20038;-67
2022/02/27 02:04:47;;;;;;;7.50;3.10;;;-1.60;99.90;;;;;;5104860;28;20027;-67
2022/02/27 02:07:13;;;;;;;9.52;2.63;;;-1.50;99.90;;;;;;5098918;28;20619;-67
2022/02/27 02:09:39;;;;;;;5.07;1.75;;;-1.30;99.90;;;;;;5082066;28;20035;-67
2022/02/27 02:12:06;;;;;;;2.30;1.48;;;-1.50;99.90;;;;;;5100379;28;20470;-67
2022/02/27 02:14:32;;;;;;;2.20;1.33;;;-1.50;99.90;;;;;;5104863;28;20031;-67
2022/02/27 02:16:57;;;;;;;4.85;1.88;;;-1.60;99.90;;;;;;5102653;28;20039;-68
2022/02/27 02:19:26;;;;;;;4.00;1.75;;;-1.60;99.90;;;;;;5104001;28;20098;-67
2022/02/27 02:21:54;;;;;;;2.88;1.98;;;-1.70;99.90;;;;;;5085258;28;20066;-67
2022/02/27 02:24:20;;;;;;;4.13;2.42;;;-1.70;99.90;;;;;;5107651;28;20024;-67
2022/02/27 02:26:47;;;;;;;3.00;1.17;;;-1.70;99.90;;;;;;5107728;27;20436;-67
2022/02/27 02:29:15;;;;;;;6.28;2.15;;;-1.70;99.90;;;;;;5094730;28;20515;-67
2022/02/27 02:31:42;;;;;;;1.65;1.23;;;-1.70;99.90;;;;;;5086283;28;20035;-67
2022/02/27 02:34:16;;;;;;;3.03;1.85;;;-1.70;99.90;;;;;;5095730;27;20043;-67
2022/02/27 02:36:42;;;;;;;2.75;1.75;;;-1.80;99.90;;;;;;5107724;27;20496;-67
2022/02/27 02:39:10;;;;;;;4.55;2.63;;;-1.80;99.90;;;;;;5096743;28;20077;-67
2022/02/27 02:41:36;;;;;;;5.40;2.03;;;-1.80;99.90;;;;;;5106325;27;20027;-67
2022/02/27 02:44:03;;;;;;;4.55;2.33;;;-1.80;99.90;;;;;;5087905;28;20024;-67
2022/02/27 02:46:29;;;;;;;3.53;1.92;;;-1.80;99.90;;;;;;5104143;27;20031;-67
2022/02/27 02:48:56;;;;;;;2.08;1.33;;;-2.00;99.90;;;;;;5105157;27;20042;-67
2022/02/27 02:51:22;;;;;;;3.70;1.80;;;-2.10;99.90;;;;;;5103810;27;20051;-67
2022/02/27 02:53:48;;;;;;;2.25;1.52;;;-2.10;99.90;;;;;;5105078;28;20444;-67
2022/02/27 02:56:13;;;;;;;5.05;1.70;;;-2.20;99.90;;;;;;5106937;28;20032;-67
2022/02/27 02:58:41;;;;;;;3.20;1.73;;;-2.30;99.90;;;;;;5097229;28;20068;-67
2022/02/27 03:01:09;;;;;;;3.72;1.60;;;-2.30;99.90;;;;;;5102606;27;20019;-67
2022/02/27 03:03:40;;;;;;;3.05;1.83;;;-2.30;99.90;;;;;;5089265;28;20538;-67
2022/02/27 03:06:08;;;;;;;8.40;3.70;;;-2.20;99.90;;;;;;5087307;28;20080;-67
2022/02/27 03:08:34;;;;;;;3.35;2.08;;;-2.30;99.90;;;;;;5100158;28;20079;-67
2022/02/27 03:11:00;;;;;;;8.35;2.78;;;-2.30;99.90;;;;;;5097861;28;20066;-67
2022/02/27 03:13:26;;;;;;;1.08;1.00;;;-2.20;99.90;;;;;;5101634;27;20060;-67
2022/02/27 03:15:52;;;;;;;5.15;2.40;;;-2.30;99.90;;;;;;5105921;27;20062;-67
2022/02/27 03:18:17;;;;;;;3.05;1.85;;;-2.40;99.90;;;;;;5102515;27;20062;-67
2022/02/27 03:20:43;;;;;;;4.85;2.15;;;-2.40;99.90;;;;;;5093720;28;20028;-67
2022/02/27 03:23:09;;;;;;;6.68;2.70;;;-2.50;99.90;;;;;;5105389;28;20070;-67
2022/02/27 03:25:34;;;;;;;12.52;4.05;;;-2.50;99.90;;;;;;5093952;28;20494;-67
2022/02/27 03:28:00;;;;;;;11.38;2.90;;;-2.40;99.90;;;;;;5105836;28;20126;-67
2022/02/27 03:30:25;;;;;;;3.85;1.85;;;-2.40;99.90;;;;;;5110905;27;20052;-67
2022/02/27 03:32:51;;;;;;;5.90;2.70;;;-2.50;99.90;;;;;;5105755;27;20028;-67
2022/02/27 03:35:18;;;;;;;3.90;2.47;;;-2.40;99.90;;;;;;5110134;27;20488;-67
2022/02/27 03:37:44;;;;;;;4.72;2.05;;;-2.40;99.90;;;;;;5091541;28;20572;-66
2022/02/27 03:40:10;;;;;;;4.10;2.17;;;-2.40;99.90;;;;;;5090600;28;20030;-67
2022/02/27 03:42:36;;;;;;;3.15;2.25;;;-2.30;99.90;;;;;;5100695;28;20024;-67
2022/02/27 03:45:03;;;;;;;5.60;2.92;;;-2.20;99.90;;;;;;5090088;28;20039;-66
2022/02/27 03:47:29;;;;;;;4.22;2.28;;;-2.20;99.90;;;;;;5106417;28;20024;-67
2022/02/27 03:49:55;;;;;;;2.60;1.40;;;-2.30;99.90;;;;;;5084599;28;20035;-67
2022/02/27 03:52:21;;;;;;;2.22;1.67;;;-2.40;99.90;;;;;;5104246;28;20471;-67
2022/02/27 03:54:46;;;;;;;4.88;2.33;;;-2.40;99.90;;;;;;5089175;28;20028;-67
2022/02/27 03:57:12;;;;;;;17.67;1.98;;;-2.40;99.90;;;;;;5104934;28;20077;-67
2022/02/27 03:59:38;;;;;;;5.07;2.05;;;-2.50;99.90;;;;;;5102743;28;20531;-67
2022/02/27 04:02:03;;;;;;;4.07;1.92;;;-2.60;99.90;;;;;;5089701;28;20020;-66
2022/02/27 04:04:29;;;;;;;3.65;2.28;;;-2.60;99.90;;;;;;5086651;28;20055;-67
2022/02/27 04:06:54;;;;;;;7.18;2.78;;;-2.60;99.90;;;;;;5101455;28;20035;-67
2022/02/27 04:09:20;;;;;;;2.40;1.30;;;-2.60;99.90;;;;;;5101276;28;20030;-67
2022/02/27 04:11:46;;;;;;;3.25;1.90;;;-2.70;99.90;;;;;;5099628;28;20086;-67
2022/02/27 04:14:11;;;;;;;2.70;1.67;;;-2.50;99.90;;;;;;5106620;28;20055;-67
2022/02/27 04:16:37;;;;;;;5.50;1.63;;;-2.40;99.90;;;;;;5106376;28;20028;-67
2022/02/27 04:19:03;;;;;;;3.35;1.95;;;-2.40;99.90;;;;;;5103133;28;20032;-67
2022/02/27 04:21:29;;;;;;;9.32;2.50;;;-2.40;99.90;;;;;;5102606;28;20020;-67
2022/02/27 04:23:55;;;;;;;3.08;1.65;;;-2.40;99.90;;;;;;5104584;28;20020;-67
2022/02/27 04:26:20;;;;;;;2.08;1.35;;;-2.50;99.90;;;;;;5102973;28;20032;-67
2022/02/27 04:28:46;;;;;;;3.42;2.25;;;-2.40;99.90;;;;;;5100917;28;20530;-67
2022/02/27 04:31:12;;;;;;;2.22;1.45;;;-2.40;99.90;;;;;;5099912;28;20027;-66
2022/02/27 04:33:38;;;;;;;4.65;2.40;;;-2.50;99.90;;;;;;5088183;28;20189;-67
2022/02/27 04:36:04;;;;;;;1.80;1.35;;;-2.50;99.90;;;;;;5102860;28;20032;-67
2022/02/27 04:38:30;;;;;;;2.85;1.42;;;-2.40;99.90;;;;;;5104507;28;20027;-67
2022/02/27 04:40:55;;;;;;;3.47;1.73;;;-2.50;99.90;;;;;;5101753;28;20042;-67
2022/02/27 04:43:21;;;;;;;4.68;2.22;;;-2.40;99.90;;;;;;5080621;28;20024;-66
2022/02/27 04:45:47;;;;;;;3.95;1.83;;;-2.40;99.90;;;;;;5086411;28;20365;-67
2022/02/27 04:48:12;;;;;;;7.63;2.50;;;-2.40;99.90;;;;;;5101211;28;20427;-67
2022/02/27 04:50:38;;;;;;;4.38;2.92;;;-2.50;99.90;;;;;;5106995;27;20031;-67
2022/02/27 04:53:04;;;;;;;4.03;1.98;;;-2.70;99.90;;;;;;5096503;28;20043;-67
2022/02/27 04:55:29;;;;;;;2.20;1.45;;;-2.60;99.90;;;;;;5080704;28;20034;-67
2022/02/27 04:57:55;;;;;;;5.55;2.75;;;-2.60;99.90;;;;;;5112493;27;20445;-67
2022/02/27 05:00:21;;;;;;;5.05;3.60;;;-2.70;99.90;;;;;;5086166;28;20031;-67
2022/02/27 05:02:47;;;;;;;1.48;1.05;;;-2.60;99.90;;;;;;5100945;28;20103;-67
2022/02/27 05:05:12;;;;;;;3.97;2.00;;;-2.60;99.90;;;;;;5100558;27;20111;-67
2022/02/27 05:07:38;;;;;;;2.85;1.75;;;-2.60;99.90;;;;;;5104638;27;20028;-67
2022/02/27 05:10:05;;;;;;;2.85;1.60;;;-2.70;99.90;;;;;;5102477;27;20102;-67
2022/02/27 05:12:31;;;;;;;3.97;1.90;;;-2.70;99.90;;;;;;5102362;27;20023;-67
2022/02/27 05:14:57;;;;;;;3.90;1.98;;;-2.70;99.90;;;;;;5106019;27;20450;-67
2022/02/27 05:17:26;;;;;;;3.75;2.08;;;-2.90;99.90;;;;;;5083131;28;20119;-67
2022/02/27 05:19:51;;;;;;;6.07;2.28;;;-2.90;99.90;;;;;;5088770;28;20122;-67
2022/02/27 05:22:17;;;;;;;26.75;2.67;;;-2.90;99.90;;;;;;5102274;28;20054;-67
2022/02/27 05:24:42;;;;;;;21.58;2.03;;;-2.70;99.90;;;;;;5089071;28;20518;-67
2022/02/27 05:27:08;;;;;;;3.70;2.00;;;-2.80;99.90;;;;;;5090903;27;20115;-67
2022/02/27 05:29:34;;;;;;;1.58;1.20;;;-2.90;99.90;;;;;;5108921;27;21903;-67
2022/02/27 05:31:59;;;;;;;3.28;1.30;;;-2.70;99.90;;;;;;5106416;27;20431;-67
2022/02/27 05:34:25;;;;;;;11.32;1.80;;;-2.80;99.90;;;;;;5115634;27;20023;-67
2022/02/27 05:36:51;;;;;;;3.30;2.05;;;-2.80;99.90;;;;;;5117546;27;20028;-67
2022/02/27 05:39:16;;;;;;;3.58;2.15;;;-2.90;99.90;;;;;;5116373;27;20030;-67
2022/02/27 05:41:42;;;;;;;4.53;2.05;;;-3.00;99.90;;;;;;5097847;28;20771;-67
2022/02/27 05:44:08;;;;;;;2.13;1.50;;;-3.00;99.90;;;;;;5111508;27;20026;-67
2022/02/27 05:46:34;;;;;;;5.88;2.08;;;-3.00;99.90;;;;;;5107830;27;20042;-67
2022/02/27 05:48:59;;;;;;;2.83;1.05;;;-3.00;99.90;;;;;;5114348;27;20110;-67
2022/02/27 05:51:25;;;;;;;6.75;2.08;;;-3.00;99.90;;;;;;5097088;27;20073;-67
2022/02/27 05:53:51;;;;;;;1.52;1.20;;;-3.00;99.90;;;;;;5110606;27;20026;-67
2022/02/27 05:56:16;;;;;;;2.92;1.85;;;-3.00;99.90;;;;;;5085724;28;20126;-67
2022/02/27 05:58:42;;;;;;;1.63;1.20;;;-3.00;99.90;;;;;;5105389;27;20084;-67
2022/02/27 06:01:08;;;;;;;1.80;1.35;;;-3.00;99.90;;;;;;5111261;27;20023;-67
2022/02/27 06:03:33;;;;;;;2.40;1.02;;;-2.90;99.90;;;;;;5100583;28;20456;-67
2022/02/27 06:05:59;;;;;;;2.60;1.63;;;-3.10;99.90;;;;;;5115547;27;20020;-67
2022/02/27 06:08:24;;;;;;;3.35;2.05;;;-3.10;99.90;;;;;;5114750;27;20028;-67
2022/02/27 06:10:50;;;;;;;1.75;1.38;;;-3.20;99.90;;;;;;5116386;27;20407;-67
2022/02/27 06:13:15;;;;;;;1.95;1.25;;;-3.10;99.90;;;;;;5114075;28;20074;-67
2022/02/27 06:15:41;;;;;;;5.95;2.55;;;-3.10;99.90;;;;;;5115032;28;20023;-67
2022/02/27 06:18:07;;;;;;;1.00;0.90;;;-3.00;99.90;;;;;;5094183;28;20131;-67
2022/02/27 06:20:33;;;;;;;5.82;2.50;;;-3.10;99.90;;;;;;5092858;28;20027;-67
2022/02/27 06:22:58;;;;;;;3.63;1.95;;;-2.90;99.90;;;;;;5116072;28;20015;-67
2022/02/27 06:25:24;;;;;;;6.78;1.95;;;-3.10;99.90;;;;;;5111352;28;20015;-67
2022/02/27 06:27:50;;;;;;;5.95;1.88;;;-3.20;99.90;;;;;;5105988;28;20877;-67
2022/02/27 06:30:21;;;;;;;2.47;1.42;;;-3.10;99.90;;;;;;5100055;28;20058;-67
2022/02/27 06:32:49;;;;;;;3.58;1.95;;;-3.20;99.90;;;;;;5097943;28;20476;-67
2022/02/27 06:35:18;;;;;;;1.90;1.33;;;-3.20;99.90;;;;;;5099573;28;20495;-68
2022/02/27 06:37:43;;;;;;;2.80;1.52;;;-3.10;99.90;;;;;;5099863;28;20111;-67
2022/02/27 06:40:10;;;;;;;2.97;1.88;;;-3.00;99.90;;;;;;5088615;28;20114;-68
2022/02/27 06:42:37;;;;;;;3.13;1.73;;;-3.00;99.90;;;;;;5102401;28;20035;-67
2022/02/27 06:45:04;;;;;;;5.50;2.38;;;-3.00;99.90;;;;;;5098305;28;20062;-67
2022/02/27 06:47:31;;;;;;;8.38;1.52;;;-2.90;99.90;;;;;;5094196;28;20030;-67
2022/02/27 06:49:57;;;;;;;5.97;2.90;;;-3.00;99.90;;;;;;5114589;28;20075;-68
2022/02/27 06:52:23;;;;;;;2.50;1.40;;;-2.90;99.90;;;;;;5093814;28;20682;-68
2022/02/27 06:54:48;;;;;;;1.30;1.13;;;-2.80;99.90;;;;;;5111557;28;20032;-68
2022/02/27 06:57:14;;;;;;;6.05;1.90;;;-2.70;99.90;;;;;;5098491;28;20020;-68
2022/02/27 06:59:40;;;;;;;5.13;1.95;;;-2.70;99.90;;;;;;5093840;28;20012;-68
2022/02/27 07:02:07;;;;;;;2.30;1.48;;;-2.70;99.90;;;;;;5100840;28;20035;-68
2022/02/27 07:04:33;;;;;;;2.70;1.80;;;-2.80;99.90;;;;;;5114451;27;20130;-68
2022/02/27 07:06:59;;;;;;;16.42;2.28;;;-2.60;99.90;;;;;;5119318;27;20106;-68
2022/02/27 07:09:25;;;;;;;2.10;1.42;;;-2.40;99.90;;;;;;5101171;27;20027;-68
2022/02/27 07:11:52;;;;;;;4.75;2.00;;;-2.40;99.90;;;;;;5115567;27;20035;-68
2022/02/27 07:14:18;;;;;;;1.13;1.00;;;-2.40;99.90;;;;;;5115255;27;20022;-68
2022/02/27 07:16:44;;;;;;;2.90;1.67;;;-2.20;99.90;;;;;;5100323;27;20027;-68
2022/02/27 07:19:10;;;;;;;2.53;1.67;;;-2.20;99.90;;;;;;5114699;27;20021;-68
2022/02/27 07:21:35;;;;;;;1.42;1.10;;;-2.10;99.90;;;;;;5118926;27;20376;-68
2022/02/27 07:24:01;;;;;;;5.57;2.72;;;-2.10;99.90;;;;;;5113818;27;20023;-68
2022/02/27 07:26:27;;;;;;;6.63;2.70;;;-1.90;99.90;;;;;;5119681;27;20141;-68
2022/02/27 07:28:52;;;;;;;5.13;2.25;;;-1.70;99.90;;;;;;5096519;27;20043;-68
2022/02/27 07:31:19;;;;;;;4.53;1.88;;;-1.70;99.90;;;;;;5119509;27;20103;-68
2022/02/27 07:33:45;;;;;;;18.83;1.40;;;-1.70;99.90;;;;;;5095656;27;20035;-68
2022/02/27 07:36:11;;;;;;;2.60;1.40;;;-1.60;99.90;;;;;;5098188;27;20038;-69
2022/02/27 07:38:37;;;;;;;3.22;1.88;;;-1.40;99.90;;;;;;5103951;27;20031;-69
2022/02/27 07:41:03;;;;;;;5.18;2.00;;;-1.40;99.90;;;;;;5115313;27;20096;-69
2022/02/27 07:43:29;;;;;;;5.05;2.20;;;-1.20;99.90;;;;;;5118776;27;20096;-69
2022/02/27 07:45:54;;;;;;;5.22;2.28;;;-1.10;99.90;;;;;;5092638;27;20023;-70
2022/02/27 07:48:20;;;;;;;5.80;2.55;;;-0.90;99.90;;;;;;5120336;27;20020;-69
2022/02/27 07:50:46;;;;;;;2.88;1.70;;;-0.80;99.90;;;;;;5112914;27;20023;-69
2022/02/27 07:53:11;;;;;;;3.42;1.67;;;-0.60;99.90;;;;;;5096283;27;20028;-69
2022/02/27 07:55:37;;;;;;;4.10;2.10;;;-0.50;99.90;;;;;;5101958;27;20054;-69
2022/02/27 07:58:03;;;;;;;4.53;2.22;;;-0.40;99.90;;;;;;5118827;27;20684;-68
2022/02/27 08:00:28;;;;;;;2.33;1.77;;;-0.30;99.90;;;;;;5115985;27;20042;-68
2022/02/27 08:02:54;;;;;;;11.90;2.38;;;-0.20;99.90;;;;;;5116081;27;20030;-69
2022/02/27 08:05:20;;;;;;;2.47;1.67;;;-0.10;99.90;;;;;;5109595;27;20525;-69
2022/02/27 08:07:46;;;;;;;3.65;2.17;;;0.00;99.90;;;;;;5095804;27;20786;-69
2022/02/27 08:10:12;;;;;;;3.67;1.58;;;-0.10;99.90;;;;;;5107060;27;20147;-68
2022/02/27 08:12:48;;;;;;;3.78;2.35;;;0.10;99.90;;;;;;5108374;27;20106;-68
2022/02/27 08:15:15;;;;;;;2.47;1.65;;;0.20;99.90;;;;;;5098414;28;20080;-68
2022/02/27 08:17:42;;;;;;;3.33;2.05;;;0.40;99.90;;;;;;5116260;27;20429;-68
2022/02/27 08:20:08;;;;;;;6.10;2.70;;;0.50;99.90;;;;;;5100687;27;20031;-68
2022/02/27 08:22:36;;;;;;;5.03;2.22;;;0.70;99.90;;;;;;5111525;27;20032;-69
2022/02/27 08:25:07;;;;;;;4.93;1.85;;;0.90;99.90;;;;;;5114615;27;20027;-68
2022/02/27 08:27:33;;;;;;;9.32;2.42;;;1.20;99.90;;;;;;5110469;27;20024;-68
2022/02/27 08:29:58;;;;;;;2.92;1.48;;;1.50;99.90;;;;;;5092091;27;20043;-69
2022/02/27 08:32:24;;;;;;;4.80;1.98;;;1.60;99.90;;;;;;5107702;27;20029;-68
2022/02/27 08:34:50;;;;;;;9.10;2.63;;;1.60;99.90;;;;;;5107537;27;20085;-68
2022/02/27 08:37:16;;;;;;;13.25;4.20;;;1.50;99.90;;;;;;5117159;27;20034;-68
2022/02/27 08:39:42;;;;;;;10.75;2.42;;;1.80;99.90;;;;;;5115339;27;20019;-68
2022/02/27 08:42:09;;;;;;;5.70;2.10;;;2.30;99.90;;;;;;5117852;27;20062;-68
2022/02/27 08:44:34;;;;;;;11.70;2.67;;;2.40;99.90;;;;;;5117555;27;20055;-68
2022/02/27 08:47:01;;;;;;;3.92;2.08;;;2.60;99.90;;;;;;5117780;27;20031;-68
2022/02/27 08:49:27;;;;;;;4.93;2.28;;;3.10;99.90;;;;;;5111303;27;20455;-68
2022/02/27 08:51:52;;;;;;;3.70;1.48;;;3.60;99.90;;;;;;5112351;27;20020;-68
2022/02/27 08:54:18;;;;;;;5.40;1.80;;;4.20;99.90;;;;;;5114862;27;20059;-68
2022/02/27 08:56:44;;;;;;;2.85;1.38;;;4.70;99.90;;;;;;5103287;27;20107;-68
2022/02/27 08:59:09;;;;;;;2.45;1.17;;;5.40;99.90;;;;;;5116823;27;20023;-68
2022/02/27 09:01:35;;;;;;;3.78;1.92;;;5.80;99.90;;;;;;5102616;27;21200;-69
2022/02/27 09:04:01;;;;;;;8.25;2.88;;;6.10;99.90;;;;;;5097081;28;20486;-68
2022/02/27 09:06:26;;;;;;;5.47;1.80;;;6.60;99.90;;;;;;5082934;28;20028;-68
2022/02/27 09:08:52;;;;;;;3.30;1.73;;;7.40;99.90;;;;;;5106746;28;20028;-69
2022/02/27 09:11:18;;;;;;;5.78;2.00;;;8.00;99.90;;;;;;5099163;28;20027;-69
2022/02/27 09:13:43;;;;;;;14.57;2.50;;;8.40;99.90;;;;;;5102649;27;20287;-69
2022/02/27 09:16:10;;;;;;;6.25;2.15;;;8.80;99.90;;;;;;5111205;27;20027;-68
2022/02/27 09:18:35;;;;;;;11.07;1.95;;;8.80;99.90;;;;;;5108090;27;20032;-68
2022/02/27 09:21:01;;;;;;;3.45;1.48;;;8.40;99.90;;;;;;5102406;28;20042;-69
2022/02/27 09:23:27;;;;;;;6.68;1.85;;;9.30;99.90;;;;;;5100107;28;20443;-68
2022/02/27 09:25:53;;;;;;;7.28;1.67;;;9.60;99.90;;;;;;5101596;28;20024;-68
2022/02/27 09:28:19;;;;;;;3.25;1.17;;;10.00;99.90;;;;;;5099273;28;20038;-70
2022/02/27 09:30:45;;;;;;;3.97;1.52;;;10.10;99.90;;;;;;5088800;28;20043;-69
2022/02/27 09:33:11;;;;;;;4.72;1.70;;;9.10;99.90;;;;;;5099566;28;20036;-69
2022/02/27 09:35:37;;;;;;;8.68;2.40;;;10.00;99.90;;;;;;5100488;28;20027;-69
2022/02/27 09:38:03;;;;;;;6.88;1.95;;;10.90;99.90;;;;;;5111041;27;20094;-68
2022/02/27 09:40:30;;;;;;;5.00;2.25;;;11.60;99.90;;;;;;5113639;27;20559;-69
2022/02/27 09:42:55;;;;;;;2.88;1.20;;;11.50;99.60;;;;;;5098593;28;20020;-69
2022/02/27 09:45:24;;;;;;;2.38;1.10;;;11.30;98.90;;;;;;5097351;28;20045;-68
2022/02/27 09:47:52;;;;;;;2.58;1.15;;;11.40;99.80;;;;;;5101176;27;20083;-69
2022/02/27 09:50:20;;;;;;;8.48;1.65;;;12.10;99.40;;;;;;5093342;28;20082;-69
2022/02/27 09:52:46;;;;;;;7.55;1.63;;;11.80;98.30;;;;;;5098436;28;20023;-69
2022/02/27 09:55:14;;;;;;;4.90;1.23;;;11.80;98.00;;;;;;5103461;28;20035;-70
2022/02/27 09:57:46;;;;;;;6.38;2.10;;;12.50;97.20;;;;;;5100414;28;20032;-70
2022/02/27 10:00:15;;;;;;;7.28;1.75;;;11.60;96.20;;;;;;5098733;27;20092;-69
2022/02/27 10:03:13;;;;;;;3.42;1.15;;;12.20;97.90;;;;;;5100338;27;20397;-69
2022/02/27 10:05:41;;;;;;;5.53;1.60;;;12.90;96.40;;;;;;5092245;27;20032;-69
2022/02/27 10:08:08;;;;;;;6.35;1.80;;;12.80;94.30;;;;;;5091572;28;20031;-69
2022/02/27 10:10:34;;;;;;;7.13;1.67;;;12.10;94.10;;;;;;5086808;28;20503;-68
2022/02/27 10:13:01;;;;;;;6.88;1.50;;;12.00;93.70;;;;;;5089882;28;20024;-68
2022/02/27 10:15:27;;;;;;;2.50;0.93;;;12.00;93.50;;;;;;5094362;28;20028;-68
2022/02/27 10:17:53;;;;;;;2.58;1.10;;;11.50;94.10;;;;;;5103989;28;20531;-68
2022/02/27 10:20:24;;;;;;;2.65;1.17;;;11.60;94.00;;;;;;5099589;28;20408;-67
2022/02/27 10:22:52;;;;;;;4.35;1.25;;;11.90;92.80;;;;;;5098480;28;20479;-67
2022/02/27 10:25:25;;;;;;;5.03;1.40;;;11.80;93.40;;;;;;5079497;28;20073;-67
2022/02/27 10:28:02;;;;;;;6.68;1.23;;;12.20;92.00;;;;;;5075866;28;20570;-68
2022/02/27 10:30:36;;;;;;;4.68;1.20;;;12.60;91.20;;;;;;5095971;28;20465;-67
2022/02/27 10:33:07;;;;;;;3.63;1.15;;;11.90;90.90;;;;;;5092944;28;20488;-68
2022/02/27 10:35:45;;;;;;;3.95;1.27;;;11.60;91.10;;;;;;5077828;28;20020;-67
2022/02/27 10:38:43;;;;;;;2.92;1.00;;;11.60;91.90;;;;;;5096872;28;20109;-67
2022/02/27 10:41:12;;;;;;;2.45;0.77;;;12.00;90.30;;;;;;5104951;27;20043;-68
2022/02/27 10:43:43;;;;;;;5.43;1.33;;;12.60;90.10;;;;;;5096887;27;20416;-68
2022/02/27 10:46:10;;;;;;;1.80;0.90;;;13.60;89.30;;;;;;5098530;27;20216;-67
2022/02/27 10:48:36;;;;;;;6.95;1.60;;;13.30;85.70;;;;;;5099816;27;20085;-68
2022/02/27 10:51:08;;;;;;;2.65;1.00;;;12.10;89.50;;;;;;5102778;27;20436;-68
2022/02/27 10:53:39;;;;;;;1.65;0.82;;;11.90;89.30;;;;;;5104770;27;20771;-68
2022/02/27 10:56:07;;;;;;;2.42;1.10;;;12.30;89.70;;;;;;5106862;27;20023;-68
2022/02/27 10:58:39;;;;;;;2.47;0.95;;;12.90;88.40;;;;;;5104320;27;20015;-68
2022/02/27 11:01:19;;;;;;;5.97;1.05;;;12.80;87.50;;;;;;5106502;27;20019;-68
2022/02/27 11:03:46;;;;;;;4.57;1.20;;;12.90;85.30;;;;;;5103012;27;20480;-68
2022/02/27 11:06:12;;;;;;;3.30;1.27;;;13.10;88.30;;;;;;5105520;27;20024;-68
2022/02/27 11:08:38;;;;;;;6.03;1.90;;;12.50;85.30;;;;;;5085780;28;20038;-68
2022/02/27 11:11:04;;;;;;;7.90;1.10;;;13.40;86.30;;;;;;5102768;27;20031;-68
2022/02/27 11:13:30;;;;;;;3.25;1.13;;;13.90;83.20;;;;;;5103496;27;20095;-68
2022/02/27 11:15:57;;;;;;;4.60;0.90;;;13.80;84.00;;;;;;5105780;27;20058;-68
2022/02/27 11:18:23;;;;;;;2.67;0.98;;;13.30;85.30;;;;;;5077739;28;20078;-68
2022/02/27 11:20:49;;;;;;;5.05;1.20;;;13.10;82.90;;;;;;5107715;27;20031;-68
2022/02/27 11:23:15;;;;;;;1.30;0.82;;;14.00;82.40;;;;;;5083457;28;20027;-68
2022/02/27 11:25:41;;;;;;;1.90;1.00;;;14.10;81.80;;;;;;5108059;27;20114;-68
2022/02/27 11:28:10;;;;;;;2.67;1.08;;;14.70;78.40;;;;;;5092152;28;20118;-69
2022/02/27 11:30:41;;;;;;;2.63;1.10;;;14.80;80.80;;;;;;5099460;27;20035;-69
2022/02/27 11:33:11;;;;;;;1.80;0.93;;;15.40;78.80;;;;;;5097913;28;20058;-69
2022/02/27 11:35:44;;;;;;;2.70;1.02;;;15.50;78.00;;;;;;5101096;27;20671;-69
2022/02/27 11:38:30;;;;;;;4.43;1.30;;;14.60;74.90;;;;;;5105229;27;20074;-69
2022/02/27 11:41:00;;;;;;;4.57;1.67;;;14.00;75.90;;;;;;5115629;27;20106;-69
2022/02/27 11:44:08;;;;;;;4.65;1.30;;;14.10;76.40;;;;;;5100032;27;20020;-69
2022/02/27 11:46:35;;;;;;;3.97;1.33;;;13.70;76.20;;;;;;5093741;27;20032;-69
2022/02/27 11:49:04;;;;;;;2.47;1.00;;;14.20;75.80;;;;;;5107925;27;20078;-69
2022/02/27 11:51:38;;;;;;;1.52;0.80;;;14.90;75.70;;;;;;5102398;27;20037;-69
2022/02/27 11:54:15;;;;;;;1.65;0.77;;;14.50;73.60;;;;;;5092816;28;20030;-69
2022/02/27 11:57:05;;;;;;;2.97;1.05;;;14.00;72.10;;;;;;5102590;28;20579;-68
2022/02/27 11:59:54;;;;;;;5.60;1.38;;;13.90;73.10;;;;;;5085410;28;20034;-69
2022/02/27 12:02:40;;;;;;;2.17;1.02;;;14.70;75.50;;;;;;5101360;28;20057;-69
2022/02/27 12:05:17;;;;;;;2.15;0.90;;;14.70;72.80;;;;;;5104901;27;20023;-69
2022/02/27 12:07:58;;;;;;;3.63;1.02;;;14.60;73.60;;;;;;5103034;28;20033;-69
2022/02/27 12:10:41;;;;;;;2.35;0.88;;;13.90;73.30;;;;;;5098748;28;20096;-69
2022/02/27 12:13:23;;;;;;;2.00;1.00;;;14.00;75.90;;;;;;5080353;28;20447;-69
2022/02/27 12:16:05;;;;;;;3.08;1.10;;;14.30;69.60;;;;;;5082520;27;20041;-69
2022/02/27 12:18:44;;;;;;;2.20;0.82;;;14.30;73.20;;;;;;5104031;27;20073;-69
2022/02/27 12:21:11;;;;;;;3.35;1.05;;;14.80;73.00;;;;;;5109704;27;20058;-69
2022/02/27 12:23:41;;;;;;;4.00;1.10;;;15.10;72.80;;;;;;5106879;27;20162;-69
2022/02/27 12:26:09;;;;;;;4.22;1.35;;;15.50;70.00;;;;;;5104453;28;20027;-69
2022/02/27 12:29:01;;;;;;;4.07;1.30;;;15.40;68.80;;;;;;5104512;27;20442;-69
2022/02/27 12:31:32;;;;;;;6.72;1.30;;;16.60;70.30;;;;;;5095843;28;20067;-69
2022/02/27 12:34:09;;;;;;;2.58;1.05;;;15.80;66.90;;;;;;5099231;27;20069;-69
2022/02/27 12:36:36;;;;;;;5.03;1.40;;;16.10;67.10;;;;;;5096728;27;20027;-68
2022/02/27 12:39:08;;;;;;;2.60;1.00;;;16.10;67.40;;;;;;5095710;28;20420;-69
2022/02/27 12:41:44;;;;;;;3.35;1.20;;;16.20;65.60;;;;;;5103145;27;20043;-69
2022/02/27 12:44:16;;;;;;;2.92;1.00;;;16.40;65.70;;;;;;5084228;28;20020;-69
2022/02/27 12:46:42;;;;;;;1.88;0.90;;;16.50;66.70;;;;;;5103079;27;20113;-69
2022/02/27 12:51:52;;;;;;;1.65;0.80;;;15.80;65.80;;;;;;5108800;27;20096;-69